Time;durP1;ratioP1;P1;durP2;ratioP2;P2;SDS_P1;SDS_P2;PMS_P1;PMS_P2;Temp;Humidity;BMP_temperature;BMP_pressure;BME280_temperature;BME280_humidity;BME280_pressure;Samples;Min_cycle;Max_cycle;Signal;HPM_P1;HPM_P2
2021/11/08 00:01:17;;;;;;;13.27;4.17;;;8.50;99.90;;;;;;5033337;28;20030;-86
2021/11/08 00:03:47;;;;;;;21.33;4.07;;;8.50;99.90;;;;;;5017219;28;20132;-86
2021/11/08 00:06:15;;;;;;;12.40;3.47;;;8.50;99.90;;;;;;5017065;28;20029;-86
2021/11/08 00:08:41;;;;;;;14.40;3.10;;;8.50;99.90;;;;;;5017120;28;20026;-86
2021/11/08 00:11:08;;;;;;;17.17;3.93;;;8.50;99.90;;;;;;5016925;28;20025;-86
2021/11/08 00:13:36;;;;;;;16.07;3.70;;;8.50;99.90;;;;;;5016836;28;20036;-86
2021/11/08 00:21:18;;;;;;;19.95;3.78;;;8.50;99.90;;;;;;5033167;28;20084;-86
2021/11/08 00:23:44;;;;;;;16.00;3.30;;;8.60;99.90;;;;;;5016791;28;20132;-87
2021/11/08 00:26:11;;;;;;;21.73;4.17;;;8.50;99.90;;;;;;5016480;28;20108;-86
2021/11/08 00:28:37;;;;;;;17.80;4.13;;;8.60;99.90;;;;;;5016272;28;20032;-87
2021/11/08 00:31:03;;;;;;;15.30;3.27;;;8.60;99.90;;;;;;5016302;28;20029;-87
2021/11/08 00:33:29;;;;;;;15.70;3.47;;;8.60;99.90;;;;;;5016553;28;20029;-86
2021/11/08 00:35:58;;;;;;;14.30;3.47;;;8.60;99.90;;;;;;5000224;28;20036;-86
2021/11/08 00:38:25;;;;;;;14.80;3.28;;;8.60;99.90;;;;;;5032929;28;20489;-86
2021/11/08 00:40:53;;;;;;;17.00;3.90;;;8.60;99.90;;;;;;4999792;28;20394;-86
2021/11/08 00:43:19;;;;;;;13.53;3.60;;;8.60;99.90;;;;;;5016383;28;20025;-87
2021/11/08 00:45:46;;;;;;;14.40;4.23;;;8.60;99.90;;;;;;5016174;28;20069;-86
2021/11/08 00:48:18;;;;;;;15.67;3.70;;;8.60;99.90;;;;;;5016283;28;20076;-86
2021/11/08 00:50:44;;;;;;;14.33;3.67;;;8.60;99.90;;;;;;5015832;28;20029;-86
2021/11/08 00:53:10;;;;;;;16.53;3.87;;;8.60;99.90;;;;;;5016384;28;20036;-86
2021/11/08 00:55:38;;;;;;;20.60;4.00;;;8.60;99.90;;;;;;4999709;28;20179;-86
2021/11/08 00:58:04;;;;;;;14.57;3.50;;;8.60;99.90;;;;;;5016108;28;20051;-86
2021/11/08 01:00:32;;;;;;;20.10;3.93;;;8.60;99.90;;;;;;5015618;28;20119;-86
2021/11/08 01:03:01;;;;;;;17.00;4.23;;;8.60;99.90;;;;;;5016017;28;20109;-86
2021/11/08 01:05:27;;;;;;;18.55;3.83;;;8.60;99.90;;;;;;5015701;28;20037;-88
2021/11/08 01:07:53;;;;;;;19.00;3.80;;;8.60;99.90;;;;;;4999618;28;20041;-86
2021/11/08 01:10:19;;;;;;;15.33;3.73;;;8.60;99.90;;;;;;5031964;28;20525;-86
2021/11/08 01:12:45;;;;;;;16.90;4.27;;;8.60;99.90;;;;;;5015765;28;20365;-87
2021/11/08 01:15:13;;;;;;;18.60;4.67;;;8.60;99.90;;;;;;5015646;28;20033;-86
2021/11/08 01:17:40;;;;;;;18.93;4.87;;;8.60;99.90;;;;;;5040048;23;20046;-86
2021/11/08 01:20:08;;;;;;;23.40;4.57;;;8.50;99.90;;;;;;5036540;28;20018;-86
2021/11/08 01:22:35;;;;;;;19.73;4.37;;;8.50;99.90;;;;;;5036876;28;20084;-85
2021/11/08 01:25:03;;;;;;;17.23;4.00;;;8.40;99.90;;;;;;5036584;28;20029;-84
2021/11/08 01:27:37;;;;;;;18.63;4.10;;;8.40;99.90;;;;;;5036243;28;20486;-86
2021/11/08 01:30:19;;;;;;;20.60;4.03;;;8.40;99.90;;;;;;5019532;28;20389;-85
2021/11/08 01:32:55;;;;;;;18.43;4.30;;;8.40;99.90;;;;;;5003681;28;20056;-85
2021/11/08 01:35:29;;;;;;;20.17;4.97;;;8.40;99.90;;;;;;5003504;28;20065;-86
2021/11/08 01:38:05;;;;;;;24.03;4.47;;;8.40;99.90;;;;;;5003235;28;20037;-86
2021/11/08 01:40:32;;;;;;;19.77;4.90;;;8.30;99.90;;;;;;5002163;28;20033;-85
2021/11/08 01:42:58;;;;;;;20.20;5.30;;;8.40;99.90;;;;;;5003102;28;20521;-86
2021/11/08 01:45:24;;;;;;;17.37;4.73;;;8.40;99.90;;;;;;5003420;28;20037;-85
2021/11/08 01:47:50;;;;;;;23.07;6.13;;;8.40;99.90;;;;;;5035847;28;20033;-86
2021/11/08 01:50:15;;;;;;;20.80;5.57;;;8.40;99.90;;;;;;5003095;28;20084;-85
2021/11/08 01:52:41;;;;;;;17.87;5.87;;;8.50;99.90;;;;;;5036966;28;20029;-84
2021/11/08 01:55:07;;;;;;;20.90;5.97;;;8.50;99.90;;;;;;5002704;28;20029;-86
2021/11/08 01:57:36;;;;;;;18.70;5.43;;;8.40;99.90;;;;;;5019131;28;20027;-86
2021/11/08 02:00:05;;;;;;;24.20;6.18;;;8.30;99.90;;;;;;5002293;28;20508;-84
2021/11/08 02:02:33;;;;;;;22.23;5.23;;;8.30;99.90;;;;;;5019108;28;20030;-86
2021/11/08 02:04:58;;;;;;;20.17;5.20;;;8.20;99.90;;;;;;5019867;28;20017;-85
2021/11/08 02:07:25;;;;;;;23.10;6.67;;;8.10;99.90;;;;;;5019212;28;20367;-86
2021/11/08 02:09:51;;;;;;;20.37;5.60;;;8.10;99.90;;;;;;5002145;28;20030;-85
2021/11/08 02:12:17;;;;;;;21.50;5.67;;;8.10;99.90;;;;;;5019294;28;20448;-86
2021/11/08 02:14:43;;;;;;;19.60;5.17;;;8.10;99.90;;;;;;5002861;28;20034;-85
2021/11/08 02:17:09;;;;;;;23.60;6.30;;;8.00;99.90;;;;;;5002660;28;20403;-85
2021/11/08 02:19:35;;;;;;;18.43;5.27;;;7.90;99.90;;;;;;5034827;28;20124;-85
2021/11/08 02:22:03;;;;;;;23.73;5.77;;;8.00;99.90;;;;;;5002432;28;20033;-85
2021/11/08 02:24:30;;;;;;;23.63;6.03;;;8.00;99.90;;;;;;5003169;28;20033;-85
2021/11/08 02:26:56;;;;;;;16.33;6.10;;;7.90;99.90;;;;;;5002813;28;20033;-86
2021/11/08 02:29:22;;;;;;;20.50;6.43;;;7.90;99.90;;;;;;5002865;28;20474;-86
2021/11/08 02:31:50;;;;;;;24.57;5.93;;;7.80;99.90;;;;;;5002930;28;20036;-85
2021/11/08 02:34:16;;;;;;;25.80;6.77;;;7.80;99.90;;;;;;5019313;28;20497;-85
2021/11/08 02:36:43;;;;;;;23.27;6.80;;;7.80;99.90;;;;;;5003117;28;20093;-86
2021/11/08 02:39:49;;;;;;;21.27;5.80;;;7.70;99.90;;;;;;5034617;28;20042;-86
2021/11/08 02:42:06;;;;;;;21.30;6.40;;;7.70;99.90;;;;;;5017524;28;20041;-86
2021/11/08 02:44:32;;;;;;;20.13;6.30;;;7.80;99.90;;;;;;5019217;28;20159;-84
2021/11/08 02:46:58;;;;;;;16.93;5.60;;;7.80;99.90;;;;;;5001680;28;20029;-85
2021/11/08 02:49:31;;;;;;;16.70;5.70;;;7.70;99.90;;;;;;5018041;28;20053;-84
2021/11/08 02:52:03;;;;;;;17.70;6.27;;;7.70;99.90;;;;;;5040804;28;20478;-85
2021/11/08 02:54:33;;;;;;;22.07;6.80;;;7.60;99.90;;;;;;5024610;28;20025;-84
2021/11/08 02:57:00;;;;;;;27.30;6.50;;;7.60;99.90;;;;;;5008241;28;20037;-84
2021/11/08 02:59:28;;;;;;;21.80;7.13;;;7.60;99.90;;;;;;5007392;28;20037;-85
2021/11/08 03:01:55;;;;;;;19.90;6.20;;;7.70;99.90;;;;;;5040841;28;20029;-85
2021/11/08 03:04:30;;;;;;;21.33;6.87;;;7.60;99.90;;;;;;5007645;28;20041;-86
2021/11/08 03:06:56;;;;;;;25.67;6.73;;;7.70;99.90;;;;;;5007357;28;20048;-85
2021/11/08 03:09:30;;;;;;;21.30;7.03;;;7.60;99.90;;;;;;5023603;28;20025;-84
2021/11/08 03:11:57;;;;;;;19.77;6.13;;;7.70;99.90;;;;;;5024285;28;20068;-85
2021/11/08 03:14:26;;;;;;;21.23;6.63;;;7.60;99.90;;;;;;5007295;28;20037;-84
2021/11/08 03:17:02;;;;;;;20.58;6.30;;;7.70;99.90;;;;;;5024385;28;20033;-85
2021/11/08 03:19:37;;;;;;;21.83;6.97;;;7.70;99.90;;;;;;5040847;28;20485;-85
2021/11/08 03:22:11;;;;;;;19.90;6.47;;;7.60;99.90;;;;;;5007810;28;20034;-85
2021/11/08 03:24:40;;;;;;;22.43;6.40;;;7.70;99.90;;;;;;5024425;28;20036;-84
2021/11/08 03:27:19;;;;;;;18.45;6.60;;;7.60;99.90;;;;;;5007765;28;20034;-85
2021/11/08 03:29:46;;;;;;;20.23;6.57;;;7.60;99.90;;;;;;5022901;28;20040;-84
2021/11/08 03:32:16;;;;;;;23.03;6.80;;;7.60;99.90;;;;;;5007022;28;20040;-86
2021/11/08 03:34:49;;;;;;;24.90;7.50;;;7.70;99.90;;;;;;5008154;28;20040;-85
2021/11/08 03:37:15;;;;;;;23.77;7.43;;;7.60;99.90;;;;;;5023785;28;20036;-85
2021/11/08 03:39:41;;;;;;;23.03;7.20;;;7.70;99.90;;;;;;5006692;28;20029;-86
2021/11/08 03:42:07;;;;;;;24.00;7.67;;;7.70;99.90;;;;;;5024913;28;20040;-86
2021/11/08 03:44:33;;;;;;;25.57;10.63;;;7.70;99.90;;;;;;5008423;28;20180;-86
2021/11/08 03:47:00;;;;;;;24.07;8.13;;;7.70;99.90;;;;;;5042242;28;20049;-86
2021/11/08 03:49:26;;;;;;;24.00;6.97;;;7.70;99.90;;;;;;5006758;28;20037;-85
2021/11/08 03:51:52;;;;;;;26.60;7.80;;;7.70;99.90;;;;;;5007155;28;20033;-85
2021/11/08 03:54:19;;;;;;;24.50;8.07;;;7.70;99.90;;;;;;5007679;28;20033;-85
2021/11/08 03:56:44;;;;;;;21.53;6.80;;;7.70;99.90;;;;;;5007636;28;20072;-86
2021/11/08 03:59:10;;;;;;;25.40;7.87;;;7.70;99.90;;;;;;5007233;28;20037;-86
2021/11/08 04:01:36;;;;;;;26.03;7.67;;;7.70;99.90;;;;;;5021988;28;20091;-85
2021/11/08 04:04:04;;;;;;;23.70;6.70;;;7.80;99.90;;;;;;5021384;28;20033;-85
2021/11/08 04:06:31;;;;;;;23.03;7.10;;;7.70;99.90;;;;;;5021036;28;20033;-85
2021/11/08 04:08:59;;;;;;;23.77;7.47;;;7.80;99.90;;;;;;5004733;28;20394;-86
2021/11/08 04:11:27;;;;;;;20.77;7.20;;;7.80;99.90;;;;;;5004820;28;20026;-85
2021/11/08 04:13:56;;;;;;;28.93;8.07;;;7.80;99.90;;;;;;5003979;28;20097;-84
2021/11/08 04:16:22;;;;;;;23.77;7.25;;;7.80;99.90;;;;;;5003294;28;20044;-84
2021/11/08 04:18:52;;;;;;;22.57;7.17;;;7.90;99.90;;;;;;5019988;28;20034;-84
2021/11/08 04:21:19;;;;;;;25.53;7.97;;;7.90;99.90;;;;;;5003661;28;20541;-84
2021/11/08 04:23:45;;;;;;;26.50;7.30;;;7.80;99.90;;;;;;5003304;28;20037;-83
2021/11/08 04:26:17;;;;;;;25.00;7.03;;;7.80;99.90;;;;;;5003047;28;20092;-85
2021/11/08 04:28:50;;;;;;;22.87;7.70;;;7.90;99.90;;;;;;5003502;28;20079;-84
2021/11/08 04:31:17;;;;;;;19.30;7.23;;;7.90;99.90;;;;;;5003276;28;20151;-84
2021/11/08 04:33:47;;;;;;;22.83;7.90;;;7.90;99.90;;;;;;5003432;28;20022;-85
2021/11/08 04:39:11;;;;;;;21.20;7.90;;;7.90;99.90;;;;;;5036544;28;20083;-84
2021/11/08 05:25:06;;;;;;;21.83;6.97;;;8.00;99.90;;;;;;5035144;28;20398;-86
2021/11/08 05:30:17;;;;;;;26.57;11.07;;;7.90;99.90;;;;;;5034216;28;20056;-84
2021/11/08 05:32:45;;;;;;;29.03;8.87;;;7.80;99.90;;;;;;5018274;28;20033;-84
2021/11/08 05:35:14;;;;;;;30.00;8.67;;;7.80;99.90;;;;;;5001682;28;20036;-84
2021/11/08 05:37:44;;;;;;;24.73;9.85;;;7.80;99.90;;;;;;5002115;28;20029;-84
2021/11/08 05:40:14;;;;;;;29.07;11.67;;;7.80;99.90;;;;;;5001277;28;20398;-85
2021/11/08 05:42:41;;;;;;;25.70;10.00;;;7.80;99.90;;;;;;5034876;28;20405;-85
2021/11/08 05:45:11;;;;;;;23.83;9.10;;;7.80;99.90;;;;;;5035056;28;20462;-85
2021/11/08 05:47:38;;;;;;;26.90;8.70;;;7.80;99.90;;;;;;5018068;28;20037;-84
2021/11/08 05:50:07;;;;;;;24.20;7.97;;;7.80;99.90;;;;;;5017857;28;20052;-84
2021/11/08 05:52:33;;;;;;;28.02;8.02;;;7.80;99.90;;;;;;5018175;28;20034;-84
2021/11/08 05:54:59;;;;;;;29.63;8.60;;;7.80;99.90;;;;;;5017929;28;20055;-84
2021/11/08 06:00:24;;;;;;;21.20;6.37;;;7.80;99.90;;;;;;5017097;28;20034;-84
2021/11/08 06:49:26;;;;;;;22.53;6.77;;;7.20;99.90;;;;;;5034152;28;20022;-85
2021/11/08 06:51:55;;;;;;;20.43;6.50;;;7.30;99.90;;;;;;5018266;28;20030;-84
2021/11/08 06:54:22;;;;;;;20.75;6.72;;;7.30;99.90;;;;;;5018097;28;20404;-84
2021/11/08 06:56:55;;;;;;;22.70;9.30;;;7.20;99.90;;;;;;5001757;28;20521;-86
2021/11/08 06:59:24;;;;;;;27.43;8.60;;;7.20;99.90;;;;;;5001301;28;20505;-84
2021/11/08 07:01:54;;;;;;;22.38;7.30;;;7.20;99.90;;;;;;5035490;28;20045;-85
2021/11/08 07:04:21;;;;;;;26.27;7.53;;;7.20;99.90;;;;;;5018590;28;20405;-84
2021/11/08 07:06:47;;;;;;;20.13;6.60;;;7.10;99.90;;;;;;5002069;28;20026;-85
2021/11/08 07:09:14;;;;;;;26.50;7.10;;;7.10;99.90;;;;;;5001800;28;20064;-86
2021/11/08 07:11:40;;;;;;;21.93;6.70;;;7.20;99.90;;;;;;5001780;28;20482;-85
2021/11/08 07:14:10;;;;;;;21.27;6.50;;;7.20;99.90;;;;;;5001002;28;20132;-85
2021/11/08 07:16:38;;;;;;;21.67;7.33;;;7.20;99.90;;;;;;5069795;22;20043;-83
2021/11/08 07:19:05;;;;;;;22.67;6.60;;;7.20;99.90;;;;;;5072642;28;20020;-82
2021/11/08 07:21:31;;;;;;;20.40;6.40;;;7.20;99.90;;;;;;5072950;28;20031;-82
2021/11/08 07:23:57;;;;;;;24.67;7.10;;;7.30;99.90;;;;;;5071731;28;20536;-83
2021/11/08 07:26:22;;;;;;;23.97;6.80;;;7.30;99.90;;;;;;5072850;28;20037;-82
2021/11/08 07:28:49;;;;;;;25.00;7.30;;;7.30;99.90;;;;;;5072573;28;20071;-82
2021/11/08 07:31:15;;;;;;;20.13;5.80;;;7.30;99.90;;;;;;5072414;28;20025;-82
2021/11/08 07:33:41;;;;;;;26.53;7.20;;;7.40;99.90;;;;;;5054494;28;20035;-83
2021/11/08 07:36:08;;;;;;;23.43;6.73;;;7.40;99.90;;;;;;5037998;28;20396;-83
2021/11/08 07:38:35;;;;;;;18.87;6.20;;;7.50;99.90;;;;;;5057450;28;20489;-82
2021/11/08 07:41:03;;;;;;;24.00;7.30;;;7.50;99.90;;;;;;5075778;28;20385;-83
2021/11/08 07:43:29;;;;;;;29.67;7.10;;;7.60;99.90;;;;;;5074699;28;20036;-83
2021/11/08 07:45:55;;;;;;;24.30;6.90;;;7.60;99.90;;;;;;5076701;28;20058;-83
2021/11/08 07:48:21;;;;;;;21.33;6.60;;;7.60;99.90;;;;;;5076315;28;20024;-82
2021/11/08 07:50:48;;;;;;;26.10;6.77;;;7.70;99.90;;;;;;5040786;28;20028;-83
2021/11/08 07:53:15;;;;;;;29.47;7.10;;;7.80;99.90;;;;;;5075832;28;20032;-83
2021/11/08 07:55:41;;;;;;;30.30;7.27;;;7.80;99.90;;;;;;5074431;28;20174;-82
2021/11/08 07:58:07;;;;;;;34.80;7.80;;;7.90;99.90;;;;;;5058007;28;20070;-83
2021/11/08 08:00:38;;;;;;;28.63;7.10;;;7.90;99.90;;;;;;5075410;28;20107;-83
2021/11/08 08:03:05;;;;;;;23.10;6.33;;;7.90;99.90;;;;;;5057729;28;20024;-83
2021/11/08 08:05:32;;;;;;;26.70;6.93;;;7.90;99.90;;;;;;5057931;28;20033;-83
2021/11/08 08:07:58;;;;;;;22.07;6.90;;;7.90;99.90;;;;;;5075808;28;20036;-83
2021/11/08 08:10:24;;;;;;;26.20;7.10;;;7.90;99.90;;;;;;5073617;28;20427;-83
2021/11/08 08:12:49;;;;;;;23.70;6.73;;;8.00;99.90;;;;;;5057778;28;20032;-83
2021/11/08 08:15:16;;;;;;;21.50;6.73;;;8.00;99.90;;;;;;5057485;28;20078;-83
2021/11/08 08:17:42;;;;;;;26.10;7.27;;;8.10;99.90;;;;;;5058032;28;20489;-83
2021/11/08 08:20:18;;;;;;;33.87;7.77;;;8.10;99.90;;;;;;5057410;28;20154;-83
2021/11/08 08:22:44;;;;;;;32.13;7.93;;;8.20;99.90;;;;;;5057850;28;20071;-83
2021/11/08 08:25:10;;;;;;;33.20;7.30;;;8.20;99.90;;;;;;5074392;28;20522;-83
2021/11/08 08:27:37;;;;;;;32.23;7.43;;;8.30;99.90;;;;;;5058651;28;20028;-83
2021/11/08 08:30:04;;;;;;;32.57;7.73;;;8.30;99.90;;;;;;5075050;28;20355;-82
2021/11/08 08:32:30;;;;;;;33.67;7.37;;;8.40;99.90;;;;;;5075211;28;20028;-82
2021/11/08 08:34:56;;;;;;;30.47;6.97;;;8.40;99.90;;;;;;5058184;28;20024;-82
2021/11/08 08:37:23;;;;;;;25.10;6.60;;;8.40;99.90;;;;;;5076507;28;20043;-84
2021/11/08 08:39:49;;;;;;;33.20;6.50;;;8.40;99.90;;;;;;5058518;28;20032;-84
2021/11/08 08:42:16;;;;;;;27.33;6.80;;;8.50;99.90;;;;;;5074875;28;20508;-84
2021/11/08 08:44:42;;;;;;;26.60;6.43;;;8.50;99.90;;;;;;5075040;28;20133;-84
2021/11/08 08:47:08;;;;;;;37.77;7.77;;;8.50;99.90;;;;;;5041262;28;20492;-84
2021/11/08 08:49:34;;;;;;;35.50;7.13;;;8.50;99.90;;;;;;5075588;28;20036;-84
2021/11/08 08:51:59;;;;;;;26.00;6.70;;;8.60;99.90;;;;;;5040918;28;20028;-83
2021/11/08 08:54:26;;;;;;;28.23;7.70;;;8.60;99.90;;;;;;5074624;28;20032;-84
2021/11/08 08:56:52;;;;;;;22.73;7.17;;;8.60;99.90;;;;;;5040424;28;20479;-84
2021/11/08 08:59:20;;;;;;;25.13;7.07;;;8.70;99.90;;;;;;5040059;28;20489;-83
2021/11/08 09:01:46;;;;;;;25.70;6.87;;;8.70;99.90;;;;;;5074506;28;20032;-83
2021/11/08 09:04:12;;;;;;;25.53;7.60;;;8.80;99.90;;;;;;5074277;28;20068;-83
2021/11/08 09:06:37;;;;;;;22.70;7.93;;;8.80;99.90;;;;;;5040028;28;20096;-84
2021/11/08 09:09:04;;;;;;;30.13;8.43;;;8.80;99.90;;;;;;5039594;28;20074;-83
2021/11/08 09:11:30;;;;;;;29.53;8.53;;;8.90;99.90;;;;;;5056689;28;20116;-83
2021/11/08 09:14:00;;;;;;;42.80;9.63;;;8.90;99.90;;;;;;5039736;28;20031;-83
2021/11/08 09:16:31;;;;;;;39.00;9.47;;;8.90;99.90;;;;;;5056407;28;20033;-83
2021/11/08 09:18:58;;;;;;;34.50;9.67;;;8.90;99.90;;;;;;5073802;28;20040;-83
2021/11/08 09:21:26;;;;;;;32.57;9.73;;;9.00;99.90;;;;;;5039991;28;20498;-84
2021/11/08 09:23:53;;;;;;;39.47;10.20;;;9.00;99.90;;;;;;5056243;28;20040;-83
2021/11/08 09:26:19;;;;;;;36.63;10.20;;;9.10;99.90;;;;;;5055567;28;20396;-83
2021/11/08 09:28:46;;;;;;;33.47;9.40;;;9.10;99.90;;;;;;5073203;28;20489;-83
2021/11/08 09:31:12;;;;;;;35.73;9.97;;;9.10;99.90;;;;;;5056408;28;20089;-84
2021/11/08 09:33:38;;;;;;;34.17;9.30;;;9.20;99.90;;;;;;5073232;28;20107;-84
2021/11/08 09:36:08;;;;;;;37.30;8.83;;;9.20;99.90;;;;;;5056183;28;20029;-83
2021/11/08 09:38:38;;;;;;;40.07;9.90;;;9.20;99.90;;;;;;5074628;28;20036;-84
2021/11/08 09:41:10;;;;;;;36.70;10.13;;;9.30;99.90;;;;;;5057338;28;20028;-83
2021/11/08 09:43:39;;;;;;;34.13;8.97;;;9.30;99.90;;;;;;5074712;28;20051;-83
2021/11/08 09:46:04;;;;;;;32.92;8.63;;;9.30;99.90;;;;;;5074263;28;20484;-82
2021/11/08 09:48:36;;;;;;;36.20;9.17;;;9.30;99.90;;;;;;5074686;28;20025;-82
2021/11/08 09:51:01;;;;;;;35.87;9.97;;;9.20;99.90;;;;;;5057660;28;20405;-83
2021/11/08 09:53:27;;;;;;;36.27;8.67;;;9.30;99.90;;;;;;5076017;28;20021;-81
2021/11/08 09:55:53;;;;;;;33.27;8.33;;;9.20;99.90;;;;;;5078276;28;20082;-83
2021/11/08 09:58:19;;;;;;;32.77;8.87;;;9.20;99.90;;;;;;5046642;28;20032;-84
2021/11/08 10:00:54;;;;;;;32.90;9.57;;;9.30;99.90;;;;;;5080102;28;20025;-85
2021/11/08 10:03:24;;;;;;;37.03;9.07;;;9.40;99.90;;;;;;5083629;28;20029;-85
2021/11/08 10:05:52;;;;;;;33.63;9.33;;;9.40;99.90;;;;;;5048265;28;20029;-85
2021/11/08 10:08:28;;;;;;;31.57;9.13;;;9.50;99.90;;;;;;5048041;28;20027;-84
2021/11/08 10:10:57;;;;;;;58.30;12.13;;;9.50;99.90;;;;;;5063947;28;20028;-84
2021/11/08 10:13:27;;;;;;;37.55;10.05;;;9.50;99.90;;;;;;5061642;28;20033;-85
2021/11/08 10:16:01;;;;;;;40.93;10.93;;;9.50;99.90;;;;;;5064418;28;20033;-83
2021/11/08 10:18:27;;;;;;;42.70;11.47;;;9.60;99.90;;;;;;5066528;28;20025;-85
2021/11/08 10:21:04;;;;;;;32.87;9.87;;;9.70;99.90;;;;;;5082824;28;20472;-84
2021/11/08 10:23:30;;;;;;;45.43;10.20;;;9.70;99.90;;;;;;5084348;28;20020;-82
2021/11/08 10:25:55;;;;;;;41.27;10.53;;;9.80;99.90;;;;;;5083096;28;20032;-86
2021/11/08 10:28:26;;;;;;;47.63;12.23;;;9.90;99.90;;;;;;5074087;28;20036;-85
2021/11/08 10:30:59;;;;;;;43.23;10.40;;;10.00;99.90;;;;;;5062745;28;20024;-85
2021/11/08 10:33:31;;;;;;;31.00;9.33;;;10.00;99.90;;;;;;5083084;28;20026;-84
2021/11/08 10:36:18;;;;;;;35.80;10.30;;;10.10;99.90;;;;;;5079702;28;20029;-86
2021/11/08 10:38:46;;;;;;;34.67;8.17;;;10.10;99.90;;;;;;5039003;28;20102;-82
2021/11/08 10:41:17;;;;;;;27.42;7.30;;;10.30;99.90;;;;;;5072704;28;20517;-82
2021/11/08 10:43:53;;;;;;;31.50;7.53;;;10.30;99.90;;;;;;5054498;28;20029;-82
2021/11/08 10:46:37;;;;;;;38.57;9.33;;;10.20;99.90;;;;;;5071147;28;20028;-82
2021/11/08 10:49:05;;;;;;;34.43;7.57;;;10.20;99.90;;;;;;5037350;28;20031;-82
2021/11/08 10:51:31;;;;;;;23.93;6.67;;;10.20;99.90;;;;;;5072377;28;20074;-82
2021/11/08 10:54:13;;;;;;;30.20;7.10;;;10.20;99.90;;;;;;5071436;28;20033;-82
2021/11/08 10:56:47;;;;;;;24.57;6.80;;;10.20;99.90;;;;;;5072531;28;20025;-82
2021/11/08 10:59:19;;;;;;;28.40;7.07;;;10.20;99.90;;;;;;5071808;28;20090;-82
2021/11/08 11:01:57;;;;;;;28.77;6.97;;;10.20;99.90;;;;;;5037742;28;20396;-82
2021/11/08 11:04:31;;;;;;;34.27;7.73;;;10.20;99.90;;;;;;5054302;28;20037;-82
2021/11/08 11:06:57;;;;;;;32.57;6.43;;;10.20;99.90;;;;;;5070849;28;20032;-82
2021/11/08 11:09:24;;;;;;;21.83;5.93;;;10.20;99.90;;;;;;5070174;28;20627;-82
2021/11/08 11:12:09;;;;;;;20.03;6.53;;;10.20;99.90;;;;;;5056093;28;20025;-82
2021/11/08 11:14:44;;;;;;;27.80;7.10;;;10.20;99.90;;;;;;5058084;28;20025;-82
2021/11/08 11:17:17;;;;;;;30.30;6.60;;;10.20;99.90;;;;;;5075723;28;20032;-82
2021/11/08 11:19:44;;;;;;;26.53;6.00;;;10.20;99.90;;;;;;5073970;28;20036;-82
2021/11/08 11:22:14;;;;;;;22.43;6.03;;;10.20;99.90;;;;;;5075713;28;20037;-82
2021/11/08 11:24:55;;;;;;;32.20;7.17;;;10.30;99.90;;;;;;5041308;28;20038;-82
2021/11/08 11:27:27;;;;;;;28.47;6.13;;;10.30;99.90;;;;;;5075581;28;20029;-82
2021/11/08 11:30:26;;;;;;;25.57;5.53;;;10.40;99.90;;;;;;5074078;28;20526;-82
2021/11/08 11:32:59;;;;;;;24.50;5.40;;;10.40;99.90;;;;;;5057186;28;20082;-82
2021/11/08 11:35:28;;;;;;;25.07;5.63;;;10.40;99.90;;;;;;5074604;28;20085;-82
2021/11/08 11:37:59;;;;;;;21.60;5.67;;;10.40;99.90;;;;;;5057602;28;20024;-82
2021/11/08 11:40:26;;;;;;;18.13;5.40;;;10.40;99.90;;;;;;5075555;28;20066;-83
2021/11/08 11:43:00;;;;;;;25.37;5.50;;;10.40;99.90;;;;;;5073954;28;20443;-82
2021/11/08 11:45:27;;;;;;;41.43;7.53;;;10.40;99.90;;;;;;5057384;28;20043;-82
2021/11/08 11:48:04;;;;;;;30.97;5.83;;;10.50;99.90;;;;;;5073871;28;20400;-82
2021/11/08 11:50:32;;;;;;;29.13;5.60;;;10.50;99.90;;;;;;5057073;28;20028;-82
2021/11/08 11:52:59;;;;;;;25.70;5.97;;;10.40;99.90;;;;;;5056925;28;20025;-82
2021/11/08 11:55:25;;;;;;;26.73;5.70;;;10.50;99.90;;;;;;5040635;28;20038;-83
2021/11/08 11:57:55;;;;;;;25.30;6.23;;;10.50;99.90;;;;;;5056933;28;20135;-82
2021/11/08 12:00:24;;;;;;;22.50;5.87;;;10.50;99.90;;;;;;5073727;28;20138;-83
2021/11/08 12:02:54;;;;;;;23.57;5.03;;;10.60;99.90;;;;;;5074499;28;20124;-83
2021/11/08 12:05:21;;;;;;;27.97;5.90;;;10.50;99.90;;;;;;5075275;28;20332;-82
2021/11/08 12:07:55;;;;;;;23.33;5.53;;;10.50;99.90;;;;;;5073567;28;20040;-82
2021/11/08 12:10:21;;;;;;;27.03;5.40;;;10.50;99.90;;;;;;5074442;28;20399;-82
2021/11/08 12:12:47;;;;;;;23.67;5.53;;;10.50;99.90;;;;;;5056809;28;20476;-82
2021/11/08 12:15:16;;;;;;;22.27;5.80;;;10.50;99.90;;;;;;5075126;28;20119;-82
2021/11/08 12:17:45;;;;;;;23.25;4.88;;;10.50;99.90;;;;;;5040111;28;20044;-83
2021/11/08 12:20:17;;;;;;;18.87;4.97;;;10.50;99.90;;;;;;5072953;28;20070;-82
2021/11/08 12:22:44;;;;;;;20.27;4.83;;;10.50;99.90;;;;;;5056090;28;20029;-82
2021/11/08 12:25:16;;;;;;;21.97;5.90;;;10.50;99.90;;;;;;5075055;28;20051;-84
2021/11/08 12:28:09;;;;;;;23.30;5.47;;;10.50;99.90;;;;;;5056806;28;20036;-83
2021/11/08 12:30:38;;;;;;;24.40;5.43;;;10.50;99.90;;;;;;5074229;28;20090;-83
2021/11/08 12:33:20;;;;;;;21.30;5.88;;;10.50;99.90;;;;;;5072860;28;20122;-83
2021/11/08 12:35:46;;;;;;;21.83;5.40;;;10.50;99.90;;;;;;5057160;28;20036;-83
2021/11/08 12:38:17;;;;;;;24.87;6.47;;;10.50;99.90;;;;;;5074486;28;20032;-83
2021/11/08 12:40:43;;;;;;;20.03;5.73;;;10.50;99.90;;;;;;5056168;28;20032;-83
2021/11/08 12:43:09;;;;;;;26.23;6.43;;;10.50;99.90;;;;;;5074169;28;20017;-83
2021/11/08 12:45:41;;;;;;;22.60;6.07;;;10.50;99.90;;;;;;5056258;28;20032;-82
2021/11/08 12:48:14;;;;;;;22.97;5.97;;;10.50;99.90;;;;;;5072834;28;20046;-82
2021/11/08 12:50:44;;;;;;;22.80;5.37;;;10.50;99.90;;;;;;5073696;28;20112;-82
2021/11/08 12:53:26;;;;;;;24.10;5.47;;;10.50;99.90;;;;;;5039584;28;20032;-83
2021/11/08 12:55:53;;;;;;;23.10;6.00;;;10.50;99.90;;;;;;5074483;28;20032;-83
2021/11/08 12:58:19;;;;;;;22.90;5.33;;;10.50;99.90;;;;;;5057168;28;20032;-83
2021/11/08 13:00:54;;;;;;;21.73;5.23;;;10.50;99.90;;;;;;5074489;28;20025;-83
2021/11/08 13:03:36;;;;;;;25.87;6.03;;;10.60;99.90;;;;;;5074974;28;20396;-83
2021/11/08 13:06:04;;;;;;;26.53;5.83;;;10.50;99.90;;;;;;5073495;28;20527;-83
2021/11/08 13:08:31;;;;;;;23.75;5.40;;;10.60;99.90;;;;;;5074582;28;20039;-83
2021/11/08 13:10:58;;;;;;;31.00;5.70;;;10.50;99.90;;;;;;5056135;28;20028;-83
2021/11/08 13:13:26;;;;;;;29.10;6.00;;;10.60;99.90;;;;;;5056497;28;20405;-83
2021/11/08 13:15:59;;;;;;;26.83;5.83;;;10.60;99.90;;;;;;5056511;28;20042;-82
2021/11/08 13:18:35;;;;;;;30.90;7.27;;;10.50;99.90;;;;;;5097077;23;20064;-84
2021/11/08 13:21:01;;;;;;;27.37;6.70;;;10.60;99.90;;;;;;5095285;28;20055;-84
2021/11/08 13:23:28;;;;;;;24.37;6.53;;;10.60;99.90;;;;;;5095902;28;20024;-85
2021/11/08 13:25:57;;;;;;;30.63;6.60;;;10.60;99.90;;;;;;5095777;28;20036;-84
2021/11/08 13:28:25;;;;;;;19.77;5.50;;;10.60;99.90;;;;;;5076585;28;20096;-84
2021/11/08 13:30:56;;;;;;;26.58;6.35;;;10.60;99.90;;;;;;5068545;28;20500;-84
2021/11/08 13:33:25;;;;;;;28.57;5.97;;;10.60;99.90;;;;;;5083609;28;20033;-85
2021/11/08 13:35:51;;;;;;;23.40;5.30;;;10.60;99.90;;;;;;5078459;28;20046;-85
2021/11/08 13:38:20;;;;;;;26.57;5.43;;;10.60;99.90;;;;;;5063025;28;20040;-84
2021/11/08 13:40:55;;;;;;;26.50;5.53;;;10.50;99.90;;;;;;5040443;28;20360;-84
2021/11/08 13:43:24;;;;;;;28.17;5.87;;;10.60;99.90;;;;;;5043734;28;20033;-85
2021/11/08 13:45:55;;;;;;;32.05;6.35;;;10.60;99.90;;;;;;5075434;28;20024;-85
2021/11/08 13:48:27;;;;;;;20.43;5.53;;;10.60;99.90;;;;;;5073191;28;20101;-84
2021/11/08 13:50:57;;;;;;;25.93;5.17;;;10.60;99.90;;;;;;5041316;28;20037;-84
2021/11/08 13:53:27;;;;;;;;;;;10.60;99.90;;;;;;5057915;28;20067;-85
2021/11/08 13:55:56;;;;;;;34.43;7.07;;;10.60;99.90;;;;;;5074717;28;19916;-84
2021/11/08 13:58:21;;;;;;;22.87;5.47;;;10.60;99.90;;;;;;5039912;28;20120;-84
2021/11/08 14:00:47;;;;;;;23.87;4.90;;;10.60;99.90;;;;;;5039563;28;20064;-84
2021/11/08 14:03:15;;;;;;;19.73;5.07;;;10.60;99.90;;;;;;5039960;28;20032;-83
2021/11/08 14:05:49;;;;;;;16.53;4.33;;;10.60;99.90;;;;;;5056621;28;20081;-85
2021/11/08 14:08:24;;;;;;;35.87;11.47;;;10.60;99.90;;;;;;5038850;28;20028;-84
2021/11/08 14:10:55;;;;;;;26.27;5.37;;;10.60;99.90;;;;;;5038118;28;20182;-85
2021/11/08 14:13:32;;;;;;;27.00;6.37;;;10.60;99.90;;;;;;5072903;28;20028;-85
2021/11/08 14:16:00;;;;;;;21.73;6.37;;;10.60;99.90;;;;;;5041203;28;20028;-84
2021/11/08 14:18:26;;;;;;;21.00;5.13;;;10.60;99.90;;;;;;5078403;28;20036;-84
2021/11/08 14:21:21;;;;;;;20.97;4.90;;;10.60;99.90;;;;;;5055248;28;20485;-84
2021/11/08 14:23:53;;;;;;;24.50;6.13;;;10.60;99.90;;;;;;5056355;28;20410;-85
2021/11/08 14:26:21;;;;;;;20.13;4.87;;;10.60;99.90;;;;;;5039751;28;20077;-85
2021/11/08 14:28:48;;;;;;;20.13;5.63;;;10.60;99.90;;;;;;5057177;28;20032;-84
2021/11/08 14:31:28;;;;;;;25.23;5.57;;;10.50;99.90;;;;;;5038602;28;20028;-85
2021/11/08 14:34:00;;;;;;;27.07;5.37;;;10.60;99.90;;;;;;5039443;28;20050;-84
2021/11/08 14:36:29;;;;;;;19.77;4.80;;;10.60;99.90;;;;;;5038579;28;20469;-85